createdAt,value
2018-09-08T00:04:58.725Z,30.77
2018-09-08T00:07:32.626Z,34.20
2018-09-08T00:10:01.162Z,33.67
2018-09-08T00:12:30.445Z,34.20
2018-09-08T00:15:04.256Z,34.87
2018-09-08T00:17:39.202Z,34.70
2018-09-08T00:20:13.169Z,28.53
2018-09-08T00:22:46.912Z,32.57
2018-09-08T00:30:11.885Z,37.80
2018-09-08T00:32:40.421Z,42.50
2018-09-08T00:35:08.997Z,32.47
2018-09-08T00:37:37.619Z,33.53
2018-09-08T00:40:06.134Z,41.30
2018-09-08T00:42:34.636Z,37.65
2018-09-08T00:45:03.162Z,37.93
2018-09-08T00:47:31.663Z,49.73
2018-09-08T00:50:00.306Z,37.83
2018-09-08T00:52:28.890Z,40.40
2018-09-08T00:54:57.413Z,37.60
2018-09-08T00:57:28.207Z,37.77
2018-09-08T00:59:56.754Z,38.60
2018-09-08T01:02:25.234Z,45.28
2018-09-08T01:04:53.725Z,36.73
2018-09-08T01:07:27.559Z,36.65
2018-09-08T01:09:57.699Z,28.93
2018-09-08T01:12:26.841Z,33.90
2018-09-08T01:14:56.963Z,33.70
2018-09-08T01:17:25.634Z,30.93
2018-09-08T01:19:54.343Z,33.70
2018-09-08T01:22:22.930Z,25.92
2018-09-08T01:24:51.521Z,35.43
2018-09-08T01:27:20.077Z,37.83
2018-09-08T01:29:48.617Z,36.10
2018-09-08T01:32:17.574Z,38.50
2018-09-08T01:34:46.285Z,34.17
2018-09-08T01:43:14.514Z,44.77
2018-09-08T01:45:43.011Z,43.77
2018-09-08T01:48:11.754Z,49.87
2018-09-08T01:50:40.386Z,42.73
2018-09-08T01:53:08.925Z,50.03
2018-09-08T01:55:37.587Z,44.90
2018-09-08T01:58:06.200Z,46.23
2018-09-08T02:00:34.761Z,41.55
2018-09-08T02:03:03.456Z,47.70
2018-09-08T02:05:32.480Z,45.50
2018-09-08T02:08:00.984Z,38.53
2018-09-08T02:10:30.202Z,40.08
2018-09-08T02:12:58.779Z,33.50
2018-09-08T02:15:27.706Z,38.10
2018-09-08T02:17:56.302Z,42.30
2018-09-08T02:20:24.845Z,48.90
2018-09-08T02:22:53.562Z,47.00
2018-09-08T02:25:22.205Z,40.67
2018-09-08T02:27:51.848Z,44.13
2018-09-08T02:30:20.365Z,51.33
2018-09-08T02:32:48.854Z,48.10
2018-09-08T02:35:17.563Z,55.75
2018-09-08T02:37:46.046Z,47.10
2018-09-08T02:45:11.918Z,42.10
2018-09-08T02:47:40.400Z,45.13
2018-09-08T02:50:20.198Z,40.17
2018-09-08T02:52:47.549Z,38.50
2018-09-08T02:55:16.461Z,38.33
2018-09-08T02:57:43.845Z,33.20
2018-09-08T03:00:11.219Z,40.77
2018-09-08T03:02:38.601Z,40.43
2018-09-08T03:05:06.570Z,35.20
2018-09-08T03:07:33.945Z,37.58
2018-09-08T03:10:01.287Z,37.53
2018-09-08T03:12:28.967Z,39.35
2018-09-08T03:14:56.326Z,35.85
2018-09-08T03:17:24.301Z,40.87
2018-09-08T03:19:51.887Z,40.30
2018-09-08T03:22:19.293Z,40.25
2018-09-08T03:24:46.644Z,41.07
2018-09-08T03:32:14.166Z,29.87
2018-09-08T03:34:41.589Z,38.17
2018-09-08T03:37:09.327Z,39.70
2018-09-08T03:39:36.769Z,33.60
2018-09-08T03:42:04.190Z,34.33
2018-09-08T03:44:31.911Z,37.27
2018-09-08T03:46:59.402Z,37.50
2018-09-08T03:49:26.762Z,41.37
2018-09-08T03:51:54.141Z,40.40
2018-09-08T03:54:22.554Z,30.90
2018-09-08T03:56:49.931Z,44.03
2018-09-08T03:59:17.294Z,31.73
2018-09-08T04:01:44.783Z,35.77
2018-09-08T04:04:13.601Z,33.03
2018-09-08T04:06:42.806Z,37.60
2018-09-08T04:09:12.025Z,34.47
2018-09-08T04:11:40.666Z,39.23
2018-09-08T04:14:09.614Z,43.40
2018-09-08T04:16:38.594Z,39.00
2018-09-08T04:19:08.338Z,40.50
2018-09-08T04:21:36.958Z,34.87
2018-09-08T04:24:06.834Z,40.30
2018-09-08T04:26:35.442Z,39.53
2018-09-08T04:29:03.976Z,39.70
2018-09-08T04:31:32.613Z,52.05
2018-09-08T04:34:01.292Z,40.30
2018-09-08T04:36:29.937Z,33.88
2018-09-08T04:38:58.529Z,42.33
2018-09-08T04:41:27.143Z,43.93
2018-09-08T04:43:55.678Z,44.90
2018-09-08T04:46:24.266Z,41.77
2018-09-08T04:48:53.336Z,36.60
2018-09-08T04:51:21.818Z,54.48
2018-09-08T04:53:50.349Z,40.87
2018-09-08T04:56:18.831Z,37.30
2018-09-08T04:58:48.419Z,33.30
2018-09-08T05:01:17.974Z,34.53
2018-09-08T05:03:46.515Z,41.27
2018-09-08T05:11:13.446Z,39.10
2018-09-08T05:13:41.945Z,36.03
2018-09-08T05:16:10.469Z,34.07
2018-09-08T05:18:39.394Z,33.47
2018-09-08T05:21:08.783Z,28.73
2018-09-08T05:23:37.355Z,30.40
2018-09-08T05:26:05.865Z,30.40
2018-09-08T05:28:34.364Z,30.95
2018-09-08T05:31:02.846Z,30.80
2018-09-08T05:33:31.457Z,23.55
2018-09-08T05:35:59.982Z,29.73
2018-09-08T05:38:28.517Z,28.10
2018-09-08T05:40:57.561Z,29.23
2018-09-08T05:43:26.086Z,28.50
2018-09-08T05:45:55.001Z,26.40
2018-09-08T05:48:23.495Z,22.67
2018-09-08T05:50:52.001Z,20.70
2018-09-08T05:53:20.486Z,20.97
2018-09-08T05:55:48.993Z,22.80
2018-09-08T05:58:17.530Z,21.27
2018-09-08T06:00:46.057Z,20.23
2018-09-08T06:08:07.782Z,19.77
2018-09-08T06:10:36.529Z,19.03
2018-09-08T06:13:05.106Z,17.67
2018-09-08T06:15:33.741Z,20.80
2018-09-08T06:18:02.967Z,16.80
2018-09-08T06:20:31.470Z,17.52
2018-09-08T06:23:00.570Z,16.20
2018-09-08T06:25:29.104Z,16.50
2018-09-08T06:28:00.046Z,15.23
2018-09-08T06:30:30.646Z,15.53
2018-09-08T06:32:59.817Z,13.10
2018-09-08T06:35:28.383Z,14.37
2018-09-08T06:37:57.013Z,13.60
2018-09-08T06:40:25.597Z,13.58
2018-09-08T06:42:54.219Z,12.97
2018-09-08T06:45:22.763Z,11.30
2018-09-08T06:47:51.265Z,10.90
2018-09-08T06:50:19.806Z,10.30
2018-09-08T06:52:49.582Z,12.40
2018-09-08T06:55:18.382Z,11.17
2018-09-08T06:57:46.904Z,10.00
2018-09-08T07:10:16.896Z,5.63
2018-09-08T07:12:45.411Z,6.37
2018-09-08T07:20:08.798Z,6.50
2018-09-08T07:22:37.309Z,6.40
2018-09-08T07:25:08.521Z,5.37
2018-09-08T07:27:37.155Z,5.43
2018-09-08T07:30:05.738Z,4.53
2018-09-08T07:32:34.211Z,4.75
2018-09-08T07:35:02.734Z,5.50
2018-09-08T07:37:31.285Z,4.90
2018-09-08T07:39:59.781Z,11.20
2018-09-08T07:42:28.265Z,4.60
2018-09-08T07:44:56.751Z,5.10
2018-09-08T07:47:25.546Z,4.93
2018-09-08T07:49:58.372Z,5.30
2018-09-08T07:52:26.880Z,5.43
2018-09-08T07:54:55.381Z,5.00
2018-09-08T07:57:23.882Z,7.70
2018-09-08T07:59:52.437Z,4.57
2018-09-08T08:02:20.930Z,6.35
2018-09-08T08:04:50.402Z,4.83
2018-09-08T08:07:18.885Z,6.27
2018-09-08T08:09:47.375Z,5.73
2018-09-08T08:12:17.998Z,5.53
2018-09-08T08:14:46.542Z,11.22
2018-09-08T08:22:09.264Z,8.47
2018-09-08T08:24:37.963Z,12.00
2018-09-08T08:27:07.183Z,6.73
2018-09-08T08:29:35.809Z,8.47
2018-09-08T08:32:04.330Z,8.57
2018-09-08T08:34:32.853Z,7.30
2018-09-08T08:37:01.398Z,7.00
2018-09-08T08:39:31.380Z,7.80
2018-09-08T08:42:01.749Z,8.87
2018-09-08T08:44:30.278Z,7.47
2018-09-08T08:46:58.757Z,6.67
2018-09-08T08:49:27.238Z,5.10
2018-09-08T08:52:07.245Z,4.30
2018-09-08T08:54:43.725Z,4.43
2018-09-08T08:57:12.241Z,3.63
2018-09-08T08:59:42.873Z,3.33
2018-09-08T09:02:11.354Z,2.85
2018-09-08T09:04:40.044Z,3.10
2018-09-08T09:07:12.078Z,3.60
2018-09-08T09:09:41.982Z,3.90
2018-09-08T09:12:10.755Z,3.00
2018-09-08T09:14:39.345Z,2.30
2018-09-08T09:17:07.879Z,3.80
2018-09-08T09:19:47.626Z,2.20
2018-09-08T09:22:28.562Z,2.97
2018-09-08T09:25:07.479Z,1.80
2018-09-08T09:27:38.994Z,3.00
2018-09-08T09:30:08.434Z,3.40
2018-09-08T09:32:36.935Z,2.70
2018-09-08T09:35:06.104Z,2.30
2018-09-08T09:37:34.598Z,2.90
2018-09-08T09:40:03.122Z,2.90
2018-09-08T09:42:32.066Z,2.93
2018-09-08T09:45:01.279Z,3.37
2018-09-08T09:47:29.783Z,2.60
2018-09-08T09:49:58.590Z,2.23
2018-09-08T09:52:28.255Z,3.57
2018-09-08T09:54:56.864Z,2.63
2018-09-08T09:57:25.578Z,2.63
2018-09-08T09:59:54.151Z,3.00
2018-09-08T10:02:36.701Z,2.70
2018-09-08T10:05:05.228Z,2.90
2018-09-08T10:07:33.708Z,3.70
2018-09-08T10:10:02.399Z,4.10
2018-09-08T10:12:30.895Z,4.70
2018-09-08T10:14:59.728Z,3.83
2018-09-08T10:17:28.287Z,4.43
2018-09-08T10:19:56.946Z,5.03
2018-09-08T10:22:25.578Z,6.62
2018-09-08T10:24:54.703Z,8.23
2018-09-08T10:27:23.299Z,8.03
2018-09-08T10:29:53.858Z,6.07
2018-09-08T10:32:22.562Z,8.70
2018-09-08T10:34:51.178Z,7.70
2018-09-08T10:37:21.241Z,7.10
2018-09-08T10:39:50.523Z,8.27
2018-09-08T10:42:19.142Z,6.80
2018-09-08T10:44:47.683Z,6.47
2018-09-08T10:52:36.725Z,9.30
2018-09-08T10:55:05.285Z,10.00
2018-09-08T10:57:33.936Z,7.08
2018-09-08T11:00:03.303Z,6.57
2018-09-08T11:02:32.245Z,6.77
2018-09-08T11:05:01.327Z,7.80
2018-09-08T11:07:30.150Z,9.50
2018-09-08T11:09:58.804Z,6.60
2018-09-08T11:12:27.321Z,8.40
2018-09-08T11:14:56.569Z,8.03
2018-09-08T11:17:25.278Z,8.13
2018-09-08T11:19:53.965Z,7.77
2018-09-08T11:22:22.961Z,8.27
2018-09-08T11:24:52.062Z,10.18
2018-09-08T11:27:20.526Z,7.80
2018-09-08T11:29:49.289Z,8.93
2018-09-08T11:32:18.491Z,8.93
2018-09-08T11:34:47.033Z,9.27
2018-09-08T11:43:13.732Z,9.03
2018-09-08T11:45:42.382Z,6.73
2018-09-08T11:48:10.902Z,7.97
2018-09-08T11:50:39.517Z,7.92
2018-09-08T11:53:07.992Z,7.53
2018-09-08T11:55:36.628Z,7.15
2018-09-08T11:58:05.177Z,8.03
2018-09-08T12:00:33.802Z,7.33
2018-09-08T12:03:02.349Z,7.43
2018-09-08T12:05:31.275Z,6.40
2018-09-08T12:07:59.796Z,8.30
2018-09-08T12:10:28.304Z,8.33
2018-09-08T12:12:56.814Z,8.07
2018-09-08T12:15:25.334Z,8.17
2018-09-08T12:17:53.783Z,7.27
2018-09-08T12:20:22.286Z,8.47
2018-09-08T12:22:50.802Z,8.47
2018-09-08T12:25:19.352Z,7.03
2018-09-08T12:27:47.890Z,9.10
2018-09-08T12:35:09.657Z,6.93
2018-09-08T12:37:39.448Z,8.30
2018-09-08T12:40:08.437Z,8.67
2018-09-08T12:42:37.237Z,6.80
2018-09-08T12:45:06.208Z,7.83
2018-09-08T12:47:37.364Z,7.15
2018-09-08T12:50:07.520Z,9.63
2018-09-08T12:52:36.222Z,6.13
2018-09-08T12:55:04.788Z,6.47
2018-09-08T12:57:33.418Z,7.73
2018-09-08T13:00:01.975Z,7.33
2018-09-08T13:02:30.834Z,25.40
2018-09-08T13:04:59.490Z,9.00
2018-09-08T13:07:27.966Z,10.20
2018-09-08T13:09:57.096Z,12.53
2018-09-08T13:12:26.203Z,7.87
2018-09-08T13:14:54.698Z,11.33
2018-09-08T13:17:24.030Z,9.93
2018-09-08T13:19:54.438Z,11.17
2018-09-08T13:22:22.998Z,6.83
2018-09-08T13:24:52.123Z,6.67
2018-09-08T13:27:20.684Z,8.18
2018-09-08T13:29:49.209Z,10.47
2018-09-08T13:32:17.818Z,6.73
2018-09-08T13:34:47.295Z,7.30
2018-09-08T13:37:18.326Z,8.10
2018-09-08T13:39:47.099Z,6.20
2018-09-08T13:47:09.855Z,9.17
2018-09-08T13:49:39.861Z,7.87
2018-09-08T13:52:08.340Z,12.53
2018-09-08T13:54:38.097Z,6.80
2018-09-08T13:57:06.684Z,9.13
2018-09-08T13:59:35.453Z,7.20
2018-09-08T14:02:03.994Z,7.47
2018-09-08T14:04:32.729Z,7.90
2018-09-08T14:07:01.358Z,8.17
2018-09-08T14:09:30.006Z,5.73
2018-09-08T14:11:58.479Z,6.97
2018-09-08T14:14:27.263Z,6.63
2018-09-08T14:16:58.719Z,6.33
2018-09-08T14:19:27.541Z,6.03
2018-09-08T14:21:57.268Z,6.33
2018-09-08T14:24:25.819Z,5.60
2018-09-08T14:26:54.402Z,5.67
2018-09-08T14:29:22.877Z,6.53
2018-09-08T14:31:51.379Z,6.90
2018-09-08T14:34:19.882Z,6.50
2018-09-08T14:36:48.388Z,7.35
2018-09-08T14:39:18.752Z,5.30
2018-09-08T14:41:47.393Z,5.90
2018-09-08T14:44:17.327Z,5.33
2018-09-08T14:46:46.621Z,6.10
2018-09-08T14:58:55.474Z,7.03
2018-09-08T15:01:23.986Z,6.10
2018-09-08T15:03:52.490Z,7.03
2018-09-08T15:06:22.564Z,6.80
2018-09-08T15:08:51.109Z,6.10
2018-09-08T15:11:20.063Z,5.90
2018-09-08T15:13:48.975Z,6.27
2018-09-08T15:16:17.501Z,6.08
2018-09-08T15:18:46.132Z,5.87
2018-09-08T15:38:20.212Z,5.90
2018-09-08T15:40:49.845Z,8.20
2018-09-08T15:43:18.335Z,6.00
2018-09-08T15:45:46.922Z,7.33
2018-09-08T15:54:15.421Z,6.65
2018-09-08T15:56:44.639Z,7.30
2018-09-08T15:59:13.108Z,6.50
2018-09-08T16:01:42.297Z,5.97
2018-09-08T16:04:16.455Z,9.07
2018-09-08T16:06:45.029Z,5.23
2018-09-08T16:19:16.801Z,9.53
2018-09-08T16:21:45.285Z,5.23
2018-09-08T16:34:16.798Z,6.58
2018-09-08T16:36:45.318Z,6.80
2018-09-08T16:58:20.298Z,6.08
2018-09-08T17:00:49.279Z,5.93
2018-09-08T17:03:17.902Z,10.20
2018-09-08T17:05:46.390Z,7.45
2018-09-08T17:18:26.739Z,9.00
2018-09-08T17:20:55.294Z,7.23
2018-09-08T17:23:23.845Z,7.40
2018-09-08T17:25:52.402Z,7.30
2018-09-08T17:28:21.495Z,7.30
2018-09-08T17:30:50.186Z,9.60
2018-09-08T17:33:18.686Z,7.83
2018-09-08T17:35:47.145Z,8.23
2018-09-08T17:38:18.433Z,7.87
2018-09-08T17:40:47.562Z,9.50
2018-09-08T17:43:17.394Z,11.30
2018-09-08T17:45:46.337Z,10.77
2018-09-08T17:53:13.973Z,17.53
2018-09-08T17:55:42.453Z,14.47
2018-09-08T17:58:10.954Z,12.27
2018-09-08T18:00:40.674Z,12.33
2018-09-08T18:03:09.753Z,17.50
2018-09-08T18:05:39.032Z,20.47
2018-09-08T18:08:07.530Z,11.40
2018-09-08T18:10:36.166Z,14.73
2018-09-08T18:13:04.665Z,15.33
2018-09-08T18:15:33.342Z,14.37
2018-09-08T18:18:01.862Z,13.50
2018-09-08T18:20:30.373Z,15.00
2018-09-08T18:22:59.511Z,13.50
2018-09-08T18:25:28.113Z,18.53
2018-09-08T18:27:56.578Z,15.73
2018-09-08T18:30:25.888Z,21.33
2018-09-08T18:32:54.545Z,15.90
2018-09-08T18:35:22.970Z,14.83
2018-09-08T18:37:51.508Z,14.28
2018-09-08T18:40:20.403Z,16.53
2018-09-08T18:42:48.990Z,16.97
2018-09-08T18:45:17.633Z,20.32
2018-09-08T18:47:46.115Z,16.83
2018-09-08T18:55:08.579Z,18.37
2018-09-08T18:57:37.130Z,23.03
2018-09-08T19:05:00.823Z,23.33
2018-09-08T19:07:29.410Z,20.50
2018-09-08T19:10:03.406Z,19.80
2018-09-08T19:12:32.326Z,19.67
2018-09-08T19:15:06.405Z,20.30
2018-09-08T19:17:35.307Z,21.10
2018-09-08T19:20:09.575Z,18.37
2018-09-08T19:22:38.070Z,22.40
2018-09-08T19:25:06.817Z,18.93
2018-09-08T19:27:35.321Z,21.73
2018-09-08T19:30:04.130Z,22.50
2018-09-08T19:32:32.610Z,20.97
2018-09-08T19:35:06.487Z,20.93
2018-09-08T19:37:36.063Z,25.50
2018-09-08T19:40:09.491Z,21.70
2018-09-08T19:42:37.974Z,23.90
2018-09-08T19:45:07.297Z,17.40
2018-09-08T19:47:41.111Z,19.40
2018-09-08T19:50:09.624Z,16.03
2018-09-08T19:52:46.080Z,16.50
2018-09-08T20:00:13.362Z,14.83
2018-09-08T20:02:41.906Z,15.10
2018-09-08T20:05:10.481Z,13.48
2018-09-08T20:07:39.033Z,13.43
2018-09-08T20:10:07.638Z,19.93
2018-09-08T20:12:36.213Z,13.93
2018-09-08T20:15:04.912Z,14.03
2018-09-08T20:17:33.454Z,14.78
2018-09-08T20:20:01.930Z,18.77
2018-09-08T20:22:31.059Z,13.38
2018-09-08T20:24:59.725Z,13.67
2018-09-08T20:27:28.984Z,14.03
2018-09-08T20:29:58.259Z,14.80
2018-09-08T20:32:27.103Z,14.60
2018-09-08T20:34:55.655Z,17.50
2018-09-08T20:37:24.166Z,14.40
2018-09-08T20:39:52.645Z,17.43
2018-09-08T20:42:21.157Z,14.15
2018-09-08T20:44:50.292Z,19.43
2018-09-08T20:47:19.329Z,18.53
2018-09-08T20:49:47.822Z,15.70
2018-09-08T20:52:17.410Z,25.60
2018-09-08T20:54:46.215Z,24.43
2018-09-08T21:02:09.203Z,17.67
2018-09-08T21:04:37.814Z,20.80
2018-09-08T21:07:07.691Z,19.50
2018-09-08T21:09:36.348Z,19.87
2018-09-08T21:12:04.866Z,22.10
2018-09-08T21:14:33.330Z,25.17
2018-09-08T21:17:01.833Z,28.83
2018-09-08T21:19:30.330Z,23.50
2018-09-08T21:21:58.805Z,29.80
2018-09-08T21:24:27.629Z,26.97
2018-09-08T21:26:56.114Z,23.90
2018-09-08T21:29:24.625Z,23.90
2018-09-08T21:31:53.162Z,21.20
2018-09-08T21:34:21.706Z,20.33
2018-09-08T21:36:50.935Z,20.80
2018-09-08T21:39:20.681Z,24.90
2018-09-08T21:41:49.232Z,17.87
2018-09-08T21:44:18.124Z,21.20
2018-09-08T21:46:48.377Z,20.17
2018-09-08T21:49:17.375Z,17.95
2018-09-08T21:51:46.525Z,21.50
2018-09-08T21:59:10.346Z,17.87
2018-09-08T22:01:41.702Z,20.20
2018-09-08T22:04:10.498Z,17.90
2018-09-08T22:06:39.629Z,21.20
2018-09-08T22:09:09.218Z,18.17
2018-09-08T22:11:37.912Z,19.33
2018-09-08T22:14:07.342Z,19.48
2018-09-08T22:16:37.151Z,26.17
2018-09-08T22:19:06.704Z,20.70
2018-09-08T22:21:35.342Z,19.77
2018-09-08T22:24:03.837Z,18.90
2018-09-08T22:26:32.479Z,22.70
2018-09-08T22:29:01.097Z,26.80
2018-09-08T22:31:29.905Z,22.10
2018-09-08T22:33:59.195Z,20.65
2018-09-08T22:36:27.748Z,22.50
2018-09-08T22:38:56.507Z,19.83
2018-09-08T22:41:25.029Z,20.12
2018-09-08T22:43:53.550Z,26.80
2018-09-08T22:46:22.049Z,29.13
2018-09-08T22:48:50.502Z,22.40
2018-09-08T22:51:19.088Z,20.40
2018-09-08T22:53:47.951Z,19.27
2018-09-08T22:56:17.478Z,19.57
2018-09-08T22:58:46.157Z,19.73
2018-09-08T23:06:11.626Z,18.83
2018-09-08T23:08:40.821Z,18.50
2018-09-08T23:11:09.306Z,19.10
2018-09-08T23:13:37.870Z,18.47
2018-09-08T23:16:06.373Z,18.83
2018-09-08T23:18:35.178Z,17.60
2018-09-08T23:21:04.084Z,25.30
2018-09-08T23:23:32.758Z,26.03
2018-09-08T23:26:01.889Z,21.67
2018-09-08T23:28:30.444Z,20.03
2018-09-08T23:30:59.325Z,16.80
2018-09-08T23:33:27.848Z,20.07
2018-09-08T23:35:56.682Z,18.03
2018-09-08T23:38:25.382Z,17.70
2018-09-08T23:40:54.091Z,21.40
2018-09-08T23:43:22.648Z,18.43
2018-09-08T23:45:51.161Z,22.97
2018-09-08T23:48:20.073Z,16.80
2018-09-08T23:50:48.597Z,19.03
2018-09-08T23:53:17.367Z,20.07
2018-09-08T23:55:45.995Z,17.20
